sensor_id;sensor_type;location;lat;lon;timestamp;P1;durP1;ratioP1;P2;durP2;ratioP2
26113;SDS011;13966;48.828;9.064;2022-10-19T00:01:07;11.75;;;7.55;;
26113;SDS011;13966;48.828;9.064;2022-10-19T00:03:33;10.95;;;7.35;;
26113;SDS011;13966;48.828;9.064;2022-10-19T00:06:08;12.30;;;7.72;;
26113;SDS011;13966;48.828;9.064;2022-10-19T00:08:34;12.15;;;7.82;;
26113;SDS011;13966;48.828;9.064;2022-10-19T00:11:00;16.92;;;8.35;;
26113;SDS011;13966;48.828;9.064;2022-10-19T00:13:26;13.07;;;8.38;;
26113;SDS011;13966;48.828;9.064;2022-10-19T00:15:52;16.02;;;8.55;;
26113;SDS011;13966;48.828;9.064;2022-10-19T00:18:18;12.00;;;7.97;;
26113;SDS011;13966;48.828;9.064;2022-10-19T00:20:43;11.82;;;7.85;;
26113;SDS011;13966;48.828;9.064;2022-10-19T00:23:09;11.20;;;7.72;;
26113;SDS011;13966;48.828;9.064;2022-10-19T00:25:35;11.30;;;7.72;;
26113;SDS011;13966;48.828;9.064;2022-10-19T00:28:02;15.00;;;8.00;;
26113;SDS011;13966;48.828;9.064;2022-10-19T00:30:28;11.85;;;8.25;;
26113;SDS011;13966;48.828;9.064;2022-10-19T00:32:54;16.63;;;8.20;;
26113;SDS011;13966;48.828;9.064;2022-10-19T00:35:20;12.32;;;7.93;;
26113;SDS011;13966;48.828;9.064;2022-10-19T00:37:46;12.93;;;8.10;;
26113;SDS011;13966;48.828;9.064;2022-10-19T00:40:12;17.88;;;8.10;;
26113;SDS011;13966;48.828;9.064;2022-10-19T00:42:38;11.52;;;8.63;;
26113;SDS011;13966;48.828;9.064;2022-10-19T00:45:06;16.38;;;8.77;;
26113;SDS011;13966;48.828;9.064;2022-10-19T00:47:36;13.40;;;8.65;;
26113;SDS011;13966;48.828;9.064;2022-10-19T00:50:02;14.20;;;7.45;;
26113;SDS011;13966;48.828;9.064;2022-10-19T00:52:28;14.05;;;8.27;;
26113;SDS011;13966;48.828;9.064;2022-10-19T00:54:55;9.90;;;8.00;;
26113;SDS011;13966;48.828;9.064;2022-10-19T00:57:21;16.55;;;8.50;;
26113;SDS011;13966;48.828;9.064;2022-10-19T00:59:47;17.77;;;7.80;;
26113;SDS011;13966;48.828;9.064;2022-10-19T01:02:14;15.27;;;8.30;;
26113;SDS011;13966;48.828;9.064;2022-10-19T01:04:41;10.95;;;8.85;;
26113;SDS011;13966;48.828;9.064;2022-10-19T01:07:11;13.10;;;8.25;;
26113;SDS011;13966;48.828;9.064;2022-10-19T01:09:37;11.60;;;8.05;;
26113;SDS011;13966;48.828;9.064;2022-10-19T01:32:10;11.30;;;7.38;;
26113;SDS011;13966;48.828;9.064;2022-10-19T01:34:45;13.35;;;7.78;;
26113;SDS011;13966;48.828;9.064;2022-10-19T01:42:44;16.42;;;8.23;;
26113;SDS011;13966;48.828;9.064;2022-10-19T01:45:26;12.85;;;8.48;;
26113;SDS011;13966;48.828;9.064;2022-10-19T01:48:18;13.80;;;9.45;;
26113;SDS011;13966;48.828;9.064;2022-10-19T01:53:24;12.73;;;9.40;;
26113;SDS011;13966;48.828;9.064;2022-10-19T01:55:53;18.73;;;10.00;;
26113;SDS011;13966;48.828;9.064;2022-10-19T01:58:23;14.68;;;9.23;;
26113;SDS011;13966;48.828;9.064;2022-10-19T02:00:55;14.23;;;9.40;;
26113;SDS011;13966;48.828;9.064;2022-10-19T02:03:24;13.50;;;9.93;;
26113;SDS011;13966;48.828;9.064;2022-10-19T02:05:50;11.55;;;9.07;;
26113;SDS011;13966;48.828;9.064;2022-10-19T02:08:19;18.45;;;10.73;;
26113;SDS011;13966;48.828;9.064;2022-10-19T02:10:55;21.88;;;9.70;;
26113;SDS011;13966;48.828;9.064;2022-10-19T02:13:23;12.82;;;9.55;;
26113;SDS011;13966;48.828;9.064;2022-10-19T02:15:51;15.73;;;10.32;;
26113;SDS011;13966;48.828;9.064;2022-10-19T02:18:22;16.05;;;10.55;;
26113;SDS011;13966;48.828;9.064;2022-10-19T02:20:52;19.45;;;10.60;;
26113;SDS011;13966;48.828;9.064;2022-10-19T02:23:19;18.23;;;10.18;;
26113;SDS011;13966;48.828;9.064;2022-10-19T02:25:48;14.52;;;9.75;;
26113;SDS011;13966;48.828;9.064;2022-10-19T02:28:13;16.58;;;9.52;;
26113;SDS011;13966;48.828;9.064;2022-10-19T02:30:39;17.98;;;10.40;;
26113;SDS011;13966;48.828;9.064;2022-10-19T02:33:06;14.90;;;10.07;;
26113;SDS011;13966;48.828;9.064;2022-10-19T02:35:32;15.95;;;9.95;;
26113;SDS011;13966;48.828;9.064;2022-10-19T02:37:58;17.95;;;9.63;;
26113;SDS011;13966;48.828;9.064;2022-10-19T02:40:28;12.00;;;9.23;;
26113;SDS011;13966;48.828;9.064;2022-10-19T02:43:04;14.02;;;10.05;;
26113;SDS011;13966;48.828;9.064;2022-10-19T02:45:36;17.25;;;9.27;;
26113;SDS011;13966;48.828;9.064;2022-10-19T02:48:08;14.93;;;9.65;;
26113;SDS011;13966;48.828;9.064;2022-10-19T02:50:42;15.02;;;9.63;;
26113;SDS011;13966;48.828;9.064;2022-10-19T02:53:14;17.60;;;10.23;;
26113;SDS011;13966;48.828;9.064;2022-10-19T02:55:40;17.05;;;9.63;;
26113;SDS011;13966;48.828;9.064;2022-10-19T02:58:06;14.88;;;10.73;;
26113;SDS011;13966;48.828;9.064;2022-10-19T03:00:32;18.63;;;10.48;;
26113;SDS011;13966;48.828;9.064;2022-10-19T03:02:58;16.58;;;10.18;;
26113;SDS011;13966;48.828;9.064;2022-10-19T03:05:23;13.85;;;9.43;;
26113;SDS011;13966;48.828;9.064;2022-10-19T03:07:49;18.38;;;10.40;;
26113;SDS011;13966;48.828;9.064;2022-10-19T03:10:15;25.25;;;11.00;;
26113;SDS011;13966;48.828;9.064;2022-10-19T03:12:40;19.13;;;10.73;;
26113;SDS011;13966;48.828;9.064;2022-10-19T03:15:06;18.10;;;10.77;;
26113;SDS011;13966;48.828;9.064;2022-10-19T03:17:32;21.10;;;11.25;;
26113;SDS011;13966;48.828;9.064;2022-10-19T03:19:57;32.55;;;15.80;;
26113;SDS011;13966;48.828;9.064;2022-10-19T03:22:23;31.58;;;15.10;;
26113;SDS011;13966;48.828;9.064;2022-10-19T03:24:49;33.13;;;14.68;;
26113;SDS011;13966;48.828;9.064;2022-10-19T03:27:14;31.55;;;13.63;;
26113;SDS011;13966;48.828;9.064;2022-10-19T03:29:40;28.02;;;12.88;;
26113;SDS011;13966;48.828;9.064;2022-10-19T03:32:06;32.25;;;13.73;;
26113;SDS011;13966;48.828;9.064;2022-10-19T03:34:31;19.95;;;12.70;;
26113;SDS011;13966;48.828;9.064;2022-10-19T03:36:57;30.50;;;13.68;;
26113;SDS011;13966;48.828;9.064;2022-10-19T03:39:23;35.83;;;15.25;;
26113;SDS011;13966;48.828;9.064;2022-10-19T03:41:49;46.10;;;18.05;;
26113;SDS011;13966;48.828;9.064;2022-10-19T03:44:15;56.33;;;19.42;;
26113;SDS011;13966;48.828;9.064;2022-10-19T03:46:40;58.40;;;21.08;;
26113;SDS011;13966;48.828;9.064;2022-10-19T03:49:06;56.33;;;20.75;;
26113;SDS011;13966;48.828;9.064;2022-10-19T03:51:32;49.72;;;18.75;;
26113;SDS011;13966;48.828;9.064;2022-10-19T03:54:00;52.88;;;20.08;;
26113;SDS011;13966;48.828;9.064;2022-10-19T03:56:31;49.50;;;18.33;;
26113;SDS011;13966;48.828;9.064;2022-10-19T03:58:58;52.83;;;18.63;;
26113;SDS011;13966;48.828;9.064;2022-10-19T04:01:26;48.08;;;18.35;;
26113;SDS011;13966;48.828;9.064;2022-10-19T04:03:54;52.50;;;20.73;;
26113;SDS011;13966;48.828;9.064;2022-10-19T04:06:29;58.88;;;21.85;;
26113;SDS011;13966;48.828;9.064;2022-10-19T04:08:56;51.92;;;20.42;;
26113;SDS011;13966;48.828;9.064;2022-10-19T04:11:23;55.63;;;21.05;;
26113;SDS011;13966;48.828;9.064;2022-10-19T04:13:51;55.38;;;20.15;;
26113;SDS011;13966;48.828;9.064;2022-10-19T04:16:18;48.67;;;19.45;;
26113;SDS011;13966;48.828;9.064;2022-10-19T04:18:45;51.88;;;19.50;;
26113;SDS011;13966;48.828;9.064;2022-10-19T04:21:24;46.50;;;17.70;;
26113;SDS011;13966;48.828;9.064;2022-10-19T04:24:10;50.10;;;18.45;;
26113;SDS011;13966;48.828;9.064;2022-10-19T04:26:44;47.47;;;18.48;;
26113;SDS011;13966;48.828;9.064;2022-10-19T04:29:11;40.45;;;17.10;;
26113;SDS011;13966;48.828;9.064;2022-10-19T04:31:37;39.60;;;17.92;;
26113;SDS011;13966;48.828;9.064;2022-10-19T04:34:03;44.85;;;18.98;;
26113;SDS011;13966;48.828;9.064;2022-10-19T04:36:29;46.83;;;18.05;;
26113;SDS011;13966;48.828;9.064;2022-10-19T04:38:55;39.72;;;17.45;;
26113;SDS011;13966;48.828;9.064;2022-10-19T04:41:21;42.97;;;17.35;;
26113;SDS011;13966;48.828;9.064;2022-10-19T04:43:47;42.00;;;17.63;;
26113;SDS011;13966;48.828;9.064;2022-10-19T04:46:19;36.80;;;17.48;;
26113;SDS011;13966;48.828;9.064;2022-10-19T04:48:45;38.35;;;17.45;;
26113;SDS011;13966;48.828;9.064;2022-10-19T04:51:12;39.53;;;17.58;;
26113;SDS011;13966;48.828;9.064;2022-10-19T04:53:39;46.28;;;18.80;;
26113;SDS011;13966;48.828;9.064;2022-10-19T04:56:06;40.90;;;17.70;;
26113;SDS011;13966;48.828;9.064;2022-10-19T04:58:35;43.28;;;17.60;;
26113;SDS011;13966;48.828;9.064;2022-10-19T05:01:10;42.55;;;17.90;;
26113;SDS011;13966;48.828;9.064;2022-10-19T05:03:43;42.72;;;17.52;;
26113;SDS011;13966;48.828;9.064;2022-10-19T05:06:09;47.20;;;19.65;;
26113;SDS011;13966;48.828;9.064;2022-10-19T05:08:35;49.90;;;19.17;;
26113;SDS011;13966;48.828;9.064;2022-10-19T05:11:02;39.80;;;19.40;;
26113;SDS011;13966;48.828;9.064;2022-10-19T05:13:30;40.22;;;17.35;;
26113;SDS011;13966;48.828;9.064;2022-10-19T05:16:00;47.40;;;19.88;;
26113;SDS011;13966;48.828;9.064;2022-10-19T05:18:27;45.97;;;20.00;;
26113;SDS011;13966;48.828;9.064;2022-10-19T05:21:14;45.20;;;20.08;;
26113;SDS011;13966;48.828;9.064;2022-10-19T05:23:40;45.33;;;21.52;;
26113;SDS011;13966;48.828;9.064;2022-10-19T05:28:40;48.63;;;21.00;;
26113;SDS011;13966;48.828;9.064;2022-10-19T05:31:07;38.42;;;18.40;;
26113;SDS011;13966;48.828;9.064;2022-10-19T05:33:34;38.03;;;20.20;;
26113;SDS011;13966;48.828;9.064;2022-10-19T05:36:11;39.95;;;20.13;;
26113;SDS011;13966;48.828;9.064;2022-10-19T05:38:38;39.20;;;20.10;;
26113;SDS011;13966;48.828;9.064;2022-10-19T05:41:04;40.10;;;20.55;;
26113;SDS011;13966;48.828;9.064;2022-10-19T05:43:30;41.33;;;21.27;;
26113;SDS011;13966;48.828;9.064;2022-10-19T05:45:55;43.97;;;21.55;;
26113;SDS011;13966;48.828;9.064;2022-10-19T05:48:21;40.63;;;21.00;;
26113;SDS011;13966;48.828;9.064;2022-10-19T05:50:53;42.47;;;21.45;;
26113;SDS011;13966;48.828;9.064;2022-10-19T05:53:19;51.15;;;22.60;;
26113;SDS011;13966;48.828;9.064;2022-10-19T05:55:45;42.13;;;21.75;;
26113;SDS011;13966;48.828;9.064;2022-10-19T05:58:10;40.05;;;20.92;;
26113;SDS011;13966;48.828;9.064;2022-10-19T06:00:36;41.92;;;20.38;;
26113;SDS011;13966;48.828;9.064;2022-10-19T06:03:02;43.55;;;19.08;;
26113;SDS011;13966;48.828;9.064;2022-10-19T06:05:27;37.50;;;19.40;;
26113;SDS011;13966;48.828;9.064;2022-10-19T06:07:53;37.35;;;19.02;;
26113;SDS011;13966;48.828;9.064;2022-10-19T06:10:18;36.97;;;19.20;;
26113;SDS011;13966;48.828;9.064;2022-10-19T06:12:45;35.35;;;19.42;;
26113;SDS011;13966;48.828;9.064;2022-10-19T06:15:11;34.78;;;19.67;;
26113;SDS011;13966;48.828;9.064;2022-10-19T06:17:37;32.05;;;19.33;;
26113;SDS011;13966;48.828;9.064;2022-10-19T06:20:03;33.35;;;19.75;;
26113;SDS011;13966;48.828;9.064;2022-10-19T06:22:29;31.67;;;19.40;;
26113;SDS011;13966;48.828;9.064;2022-10-19T06:24:54;35.53;;;18.83;;
26113;SDS011;13966;48.828;9.064;2022-10-19T06:27:20;32.38;;;19.40;;
26113;SDS011;13966;48.828;9.064;2022-10-19T06:29:46;34.72;;;19.55;;
26113;SDS011;13966;48.828;9.064;2022-10-19T06:32:12;32.92;;;18.85;;
26113;SDS011;13966;48.828;9.064;2022-10-19T06:34:38;29.52;;;18.35;;
26113;SDS011;13966;48.828;9.064;2022-10-19T06:37:04;27.65;;;18.92;;
26113;SDS011;13966;48.828;9.064;2022-10-19T06:39:29;30.83;;;19.90;;
26113;SDS011;13966;48.828;9.064;2022-10-19T06:41:55;32.20;;;19.88;;
26113;SDS011;13966;48.828;9.064;2022-10-19T06:44:21;29.38;;;19.77;;
26113;SDS011;13966;48.828;9.064;2022-10-19T06:46:46;21.83;;;15.07;;
26113;SDS011;13966;48.828;9.064;2022-10-19T06:49:12;20.65;;;14.63;;
26113;SDS011;13966;48.828;9.064;2022-10-19T06:51:38;19.15;;;13.23;;
26113;SDS011;13966;48.828;9.064;2022-10-19T06:54:05;20.92;;;12.73;;
26113;SDS011;13966;48.828;9.064;2022-10-19T06:56:31;18.08;;;11.90;;
26113;SDS011;13966;48.828;9.064;2022-10-19T06:58:56;16.65;;;12.65;;
26113;SDS011;13966;48.828;9.064;2022-10-19T07:01:22;23.23;;;13.93;;
26113;SDS011;13966;48.828;9.064;2022-10-19T07:03:49;22.30;;;13.38;;
26113;SDS011;13966;48.828;9.064;2022-10-19T07:06:15;23.60;;;13.05;;
26113;SDS011;13966;48.828;9.064;2022-10-19T07:08:41;17.50;;;12.48;;
26113;SDS011;13966;48.828;9.064;2022-10-19T07:11:15;19.35;;;12.60;;
26113;SDS011;13966;48.828;9.064;2022-10-19T07:13:43;22.98;;;13.23;;
26113;SDS011;13966;48.828;9.064;2022-10-19T07:16:10;20.73;;;13.55;;
26113;SDS011;13966;48.828;9.064;2022-10-19T07:18:38;18.65;;;12.95;;
26113;SDS011;13966;48.828;9.064;2022-10-19T07:21:06;20.55;;;14.15;;
26113;SDS011;13966;48.828;9.064;2022-10-19T07:23:35;25.05;;;14.57;;
26113;SDS011;13966;48.828;9.064;2022-10-19T07:26:03;21.33;;;14.32;;
26113;SDS011;13966;48.828;9.064;2022-10-19T07:28:36;19.40;;;13.05;;
26113;SDS011;13966;48.828;9.064;2022-10-19T07:31:03;23.67;;;13.32;;
26113;SDS011;13966;48.828;9.064;2022-10-19T07:36:00;23.30;;;13.77;;
26113;SDS011;13966;48.828;9.064;2022-10-19T07:38:26;17.88;;;12.95;;
26113;SDS011;13966;48.828;9.064;2022-10-19T07:41:01;29.98;;;14.50;;
26113;SDS011;13966;48.828;9.064;2022-10-19T07:43:36;22.33;;;14.07;;
26113;SDS011;13966;48.828;9.064;2022-10-19T07:46:06;25.00;;;14.05;;
26113;SDS011;13966;48.828;9.064;2022-10-19T07:48:34;20.15;;;13.40;;
26113;SDS011;13966;48.828;9.064;2022-10-19T07:51:00;21.40;;;13.93;;
26113;SDS011;13966;48.828;9.064;2022-10-19T07:53:28;24.85;;;14.30;;
26113;SDS011;13966;48.828;9.064;2022-10-19T07:55:53;16.55;;;11.98;;
26113;SDS011;13966;48.828;9.064;2022-10-19T07:58:19;23.20;;;14.77;;
26113;SDS011;13966;48.828;9.064;2022-10-19T08:00:45;19.98;;;13.23;;
26113;SDS011;13966;48.828;9.064;2022-10-19T08:03:11;19.33;;;13.27;;
26113;SDS011;13966;48.828;9.064;2022-10-19T08:05:37;19.25;;;12.45;;
26113;SDS011;13966;48.828;9.064;2022-10-19T08:08:02;17.30;;;12.10;;
26113;SDS011;13966;48.828;9.064;2022-10-19T08:10:28;16.70;;;10.77;;
26113;SDS011;13966;48.828;9.064;2022-10-19T08:12:54;14.45;;;10.55;;
26113;SDS011;13966;48.828;9.064;2022-10-19T08:15:19;17.17;;;10.85;;
26113;SDS011;13966;48.828;9.064;2022-10-19T08:17:45;13.10;;;9.82;;
26113;SDS011;13966;48.828;9.064;2022-10-19T08:20:11;14.77;;;10.48;;
26113;SDS011;13966;48.828;9.064;2022-10-19T08:22:36;17.38;;;9.98;;
26113;SDS011;13966;48.828;9.064;2022-10-19T08:25:02;14.43;;;10.27;;
26113;SDS011;13966;48.828;9.064;2022-10-19T08:27:28;13.88;;;9.70;;
26113;SDS011;13966;48.828;9.064;2022-10-19T08:29:54;15.60;;;10.38;;
26113;SDS011;13966;48.828;9.064;2022-10-19T08:32:20;15.05;;;10.75;;
26113;SDS011;13966;48.828;9.064;2022-10-19T08:34:45;15.20;;;10.32;;
26113;SDS011;13966;48.828;9.064;2022-10-19T08:37:11;16.23;;;10.00;;
26113;SDS011;13966;48.828;9.064;2022-10-19T08:39:37;11.50;;;9.65;;
26113;SDS011;13966;48.828;9.064;2022-10-19T08:42:14;15.52;;;8.73;;
26113;SDS011;13966;48.828;9.064;2022-10-19T08:49:58;12.07;;;9.18;;
26113;SDS011;13966;48.828;9.064;2022-10-19T08:54:55;11.67;;;8.23;;
26113;SDS011;13966;48.828;9.064;2022-10-19T09:08:23;9.82;;;7.18;;
26113;SDS011;13966;48.828;9.064;2022-10-19T09:10:49;12.48;;;7.47;;
26113;SDS011;13966;48.828;9.064;2022-10-19T09:15:47;8.65;;;7.05;;
26113;SDS011;13966;48.828;9.064;2022-10-19T09:18:31;8.82;;;6.90;;
26113;SDS011;13966;48.828;9.064;2022-10-19T09:21:02;8.90;;;6.47;;
26113;SDS011;13966;48.828;9.064;2022-10-19T09:23:33;9.73;;;6.47;;
26113;SDS011;13966;48.828;9.064;2022-10-19T09:26:04;10.15;;;6.32;;
26113;SDS011;13966;48.828;9.064;2022-10-19T09:28:45;7.75;;;5.88;;
26113;SDS011;13966;48.828;9.064;2022-10-19T09:31:21;11.70;;;6.45;;
26113;SDS011;13966;48.828;9.064;2022-10-19T09:34:06;10.15;;;6.45;;
26113;SDS011;13966;48.828;9.064;2022-10-19T09:36:51;9.07;;;6.47;;
26113;SDS011;13966;48.828;9.064;2022-10-19T09:39:20;9.52;;;6.90;;
26113;SDS011;13966;48.828;9.064;2022-10-19T09:41:46;8.40;;;7.25;;
26113;SDS011;13966;48.828;9.064;2022-10-19T09:44:17;7.72;;;6.05;;
26113;SDS011;13966;48.828;9.064;2022-10-19T09:46:46;10.02;;;6.38;;
26113;SDS011;13966;48.828;9.064;2022-10-19T09:49:36;7.97;;;5.78;;
26113;SDS011;13966;48.828;9.064;2022-10-19T09:52:03;7.88;;;6.55;;
26113;SDS011;13966;48.828;9.064;2022-10-19T09:57:00;8.88;;;7.10;;
26113;SDS011;13966;48.828;9.064;2022-10-19T09:59:27;9.43;;;7.10;;
26113;SDS011;13966;48.828;9.064;2022-10-19T10:01:59;12.70;;;7.13;;
26113;SDS011;13966;48.828;9.064;2022-10-19T10:04:28;11.65;;;6.93;;
26113;SDS011;13966;48.828;9.064;2022-10-19T10:06:54;12.02;;;7.00;;
26113;SDS011;13966;48.828;9.064;2022-10-19T10:09:25;8.05;;;6.97;;
26113;SDS011;13966;48.828;9.064;2022-10-19T10:11:53;8.25;;;6.20;;
26113;SDS011;13966;48.828;9.064;2022-10-19T10:14:28;13.57;;;7.57;;
26113;SDS011;13966;48.828;9.064;2022-10-19T10:17:00;9.52;;;6.90;;
26113;SDS011;13966;48.828;9.064;2022-10-19T10:19:29;9.82;;;6.68;;
26113;SDS011;13966;48.828;9.064;2022-10-19T10:21:57;10.90;;;6.05;;
26113;SDS011;13966;48.828;9.064;2022-10-19T10:24:27;6.88;;;5.38;;
26113;SDS011;13966;48.828;9.064;2022-10-19T10:26:55;10.18;;;5.95;;
26113;SDS011;13966;48.828;9.064;2022-10-19T10:29:26;7.45;;;5.70;;
26113;SDS011;13966;48.828;9.064;2022-10-19T10:31:59;9.02;;;5.80;;
26113;SDS011;13966;48.828;9.064;2022-10-19T10:37:12;6.78;;;5.22;;
26113;SDS011;13966;48.828;9.064;2022-10-19T10:39:43;6.10;;;5.18;;
26113;SDS011;13966;48.828;9.064;2022-10-19T10:42:10;5.63;;;4.65;;
26113;SDS011;13966;48.828;9.064;2022-10-19T10:44:44;6.05;;;4.30;;
26113;SDS011;13966;48.828;9.064;2022-10-19T10:47:16;6.90;;;4.57;;
26113;SDS011;13966;48.828;9.064;2022-10-19T10:49:51;6.60;;;3.88;;
26113;SDS011;13966;48.828;9.064;2022-10-19T10:52:22;3.95;;;3.30;;
26113;SDS011;13966;48.828;9.064;2022-10-19T10:54:56;5.55;;;3.83;;
26113;SDS011;13966;48.828;9.064;2022-10-19T10:57:24;6.22;;;3.17;;
26113;SDS011;13966;48.828;9.064;2022-10-19T11:00:15;4.03;;;3.30;;
26113;SDS011;13966;48.828;9.064;2022-10-19T11:02:48;6.65;;;2.90;;
26113;SDS011;13966;48.828;9.064;2022-10-19T11:07:45;5.70;;;3.05;;
26113;SDS011;13966;48.828;9.064;2022-10-19T11:10:25;5.13;;;3.15;;
26113;SDS011;13966;48.828;9.064;2022-10-19T11:12:57;6.35;;;2.80;;
26113;SDS011;13966;48.828;9.064;2022-10-19T11:15:31;4.47;;;2.65;;
26113;SDS011;13966;48.828;9.064;2022-10-19T11:18:11;5.03;;;3.15;;
26113;SDS011;13966;48.828;9.064;2022-10-19T11:20:52;3.55;;;2.60;;
26113;SDS011;13966;48.828;9.064;2022-10-19T11:23:30;4.38;;;3.25;;
26113;SDS011;13966;48.828;9.064;2022-10-19T11:26:31;4.97;;;3.03;;
26113;SDS011;13966;48.828;9.064;2022-10-19T11:35:13;6.38;;;3.00;;
26113;SDS011;13966;48.828;9.064;2022-10-19T11:38:17;4.35;;;3.05;;
26113;SDS011;13966;48.828;9.064;2022-10-19T11:40:50;3.92;;;2.95;;
26113;SDS011;13966;48.828;9.064;2022-10-19T11:49:34;3.78;;;2.75;;
26113;SDS011;13966;48.828;9.064;2022-10-19T11:57:19;7.25;;;3.25;;
26113;SDS011;13966;48.828;9.064;2022-10-19T12:00:04;5.85;;;3.35;;
26113;SDS011;13966;48.828;9.064;2022-10-19T12:13:44;5.35;;;2.97;;
26113;SDS011;13966;48.828;9.064;2022-10-19T12:16:15;4.93;;;3.08;;
26113;SDS011;13966;48.828;9.064;2022-10-19T12:18:47;3.58;;;2.47;;
26113;SDS011;13966;48.828;9.064;2022-10-19T12:21:29;6.15;;;2.85;;
26113;SDS011;13966;48.828;9.064;2022-10-19T12:23:58;6.85;;;2.67;;
26113;SDS011;13966;48.828;9.064;2022-10-19T12:26:28;4.53;;;3.30;;
26113;SDS011;13966;48.828;9.064;2022-10-19T12:28:57;6.00;;;2.42;;
26113;SDS011;13966;48.828;9.064;2022-10-19T12:31:27;4.47;;;2.70;;
26113;SDS011;13966;48.828;9.064;2022-10-19T12:33:59;6.47;;;2.67;;
26113;SDS011;13966;48.828;9.064;2022-10-19T12:36:41;2.80;;;2.33;;
26113;SDS011;13966;48.828;9.064;2022-10-19T12:47:43;5.65;;;2.28;;
26113;SDS011;13966;48.828;9.064;2022-10-19T12:53:29;5.53;;;2.67;;
26113;SDS011;13966;48.828;9.064;2022-10-19T12:56:05;3.03;;;2.25;;
26113;SDS011;13966;48.828;9.064;2022-10-19T13:01:10;2.40;;;2.13;;
26113;SDS011;13966;48.828;9.064;2022-10-19T13:03:45;4.70;;;2.25;;
26113;SDS011;13966;48.828;9.064;2022-10-19T13:06:14;5.07;;;2.60;;
26113;SDS011;13966;48.828;9.064;2022-10-19T13:08:42;3.53;;;2.83;;
26113;SDS011;13966;48.828;9.064;2022-10-19T13:11:11;4.97;;;2.83;;
26113;SDS011;13966;48.828;9.064;2022-10-19T13:13:56;3.95;;;2.72;;
26113;SDS011;13966;48.828;9.064;2022-10-19T13:21:45;6.35;;;2.28;;
26113;SDS011;13966;48.828;9.064;2022-10-19T13:29:26;6.70;;;2.53;;
26113;SDS011;13966;48.828;9.064;2022-10-19T13:35:28;5.47;;;2.33;;
26113;SDS011;13966;48.828;9.064;2022-10-19T13:40:36;6.88;;;2.85;;
26113;SDS011;13966;48.828;9.064;2022-10-19T13:43:03;2.88;;;2.15;;
26113;SDS011;13966;48.828;9.064;2022-10-19T13:45:29;4.13;;;2.90;;
26113;SDS011;13966;48.828;9.064;2022-10-19T13:47:57;2.85;;;2.05;;
26113;SDS011;13966;48.828;9.064;2022-10-19T13:50:32;3.47;;;2.08;;
26113;SDS011;13966;48.828;9.064;2022-10-19T13:58:34;5.10;;;1.92;;
26113;SDS011;13966;48.828;9.064;2022-10-19T14:06:46;2.65;;;2.22;;
26113;SDS011;13966;48.828;9.064;2022-10-19T14:12:13;4.85;;;1.55;;
26113;SDS011;13966;48.828;9.064;2022-10-19T14:14:51;3.03;;;1.80;;
26113;SDS011;13966;48.828;9.064;2022-10-19T14:17:22;2.28;;;1.98;;
26113;SDS011;13966;48.828;9.064;2022-10-19T14:19:52;3.38;;;2.22;;
26113;SDS011;13966;48.828;9.064;2022-10-19T14:22:24;2.40;;;1.60;;
26113;SDS011;13966;48.828;9.064;2022-10-19T14:24:51;5.38;;;1.75;;
26113;SDS011;13966;48.828;9.064;2022-10-19T14:27:25;2.83;;;1.58;;
26113;SDS011;13966;48.828;9.064;2022-10-19T14:29:51;4.13;;;2.13;;
26113;SDS011;13966;48.828;9.064;2022-10-19T14:32:20;2.22;;;1.90;;
26113;SDS011;13966;48.828;9.064;2022-10-19T14:34:48;4.15;;;1.83;;
26113;SDS011;13966;48.828;9.064;2022-10-19T14:39:40;4.25;;;1.73;;
26113;SDS011;13966;48.828;9.064;2022-10-19T14:42:08;5.32;;;2.17;;
26113;SDS011;13966;48.828;9.064;2022-10-19T14:44:36;4.55;;;2.10;;
26113;SDS011;13966;48.828;9.064;2022-10-19T14:47:23;3.35;;;1.92;;
26113;SDS011;13966;48.828;9.064;2022-10-19T14:49:54;2.70;;;2.03;;
26113;SDS011;13966;48.828;9.064;2022-10-19T14:52:27;2.78;;;1.88;;
26113;SDS011;13966;48.828;9.064;2022-10-19T14:54:57;3.55;;;2.20;;
26113;SDS011;13966;48.828;9.064;2022-10-19T14:57:25;4.57;;;2.10;;
26113;SDS011;13966;48.828;9.064;2022-10-19T14:59:55;5.95;;;2.42;;
26113;SDS011;13966;48.828;9.064;2022-10-19T15:02:24;5.95;;;2.25;;
26113;SDS011;13966;48.828;9.064;2022-10-19T15:04:51;7.90;;;2.55;;
26113;SDS011;13966;48.828;9.064;2022-10-19T15:07:20;4.10;;;2.25;;
26113;SDS011;13966;48.828;9.064;2022-10-19T15:09:55;3.53;;;2.60;;
26113;SDS011;13966;48.828;9.064;2022-10-19T15:12:29;8.10;;;2.38;;
26113;SDS011;13966;48.828;9.064;2022-10-19T15:14:58;2.45;;;2.20;;
26113;SDS011;13966;48.828;9.064;2022-10-19T15:17:31;3.38;;;2.30;;
26113;SDS011;13966;48.828;9.064;2022-10-19T15:20:00;2.75;;;2.03;;
26113;SDS011;13966;48.828;9.064;2022-10-19T15:30:00;5.68;;;2.78;;
26113;SDS011;13966;48.828;9.064;2022-10-19T15:32:30;7.78;;;2.97;;
26113;SDS011;13966;48.828;9.064;2022-10-19T15:35:42;9.32;;;3.00;;
26113;SDS011;13966;48.828;9.064;2022-10-19T15:37:49;4.65;;;3.00;;
26113;SDS011;13966;48.828;9.064;2022-10-19T15:40:19;5.00;;;3.22;;
26113;SDS011;13966;48.828;9.064;2022-10-19T15:42:49;4.43;;;3.30;;
26113;SDS011;13966;48.828;9.064;2022-10-19T15:50:36;5.20;;;3.80;;
26113;SDS011;13966;48.828;9.064;2022-10-19T15:53:09;3.78;;;3.17;;
26113;SDS011;13966;48.828;9.064;2022-10-19T15:55:35;5.72;;;3.63;;
26113;SDS011;13966;48.828;9.064;2022-10-19T15:58:00;4.10;;;3.60;;
26113;SDS011;13966;48.828;9.064;2022-10-19T16:00:27;5.18;;;2.95;;
26113;SDS011;13966;48.828;9.064;2022-10-19T16:02:54;4.35;;;3.30;;
26113;SDS011;13966;48.828;9.064;2022-10-19T16:05:19;5.25;;;3.38;;
26113;SDS011;13966;48.828;9.064;2022-10-19T16:07:45;5.80;;;3.75;;
26113;SDS011;13966;48.828;9.064;2022-10-19T16:10:13;5.47;;;3.90;;
26113;SDS011;13966;48.828;9.064;2022-10-19T16:12:40;7.03;;;3.75;;
26113;SDS011;13966;48.828;9.064;2022-10-19T16:15:06;7.05;;;4.88;;
26113;SDS011;13966;48.828;9.064;2022-10-19T16:17:32;7.53;;;4.00;;
26113;SDS011;13966;48.828;9.064;2022-10-19T16:19:58;4.63;;;3.55;;
26113;SDS011;13966;48.828;9.064;2022-10-19T16:22:24;6.50;;;3.97;;
26113;SDS011;13966;48.828;9.064;2022-10-19T16:24:50;13.05;;;4.10;;
26113;SDS011;13966;48.828;9.064;2022-10-19T16:27:16;9.10;;;4.15;;
26113;SDS011;13966;48.828;9.064;2022-10-19T16:29:42;6.38;;;4.03;;
26113;SDS011;13966;48.828;9.064;2022-10-19T16:32:08;5.93;;;4.07;;
26113;SDS011;13966;48.828;9.064;2022-10-19T16:34:34;6.32;;;4.47;;
26113;SDS011;13966;48.828;9.064;2022-10-19T16:37:00;6.97;;;4.30;;
26113;SDS011;13966;48.828;9.064;2022-10-19T16:39:26;8.73;;;4.13;;
26113;SDS011;13966;48.828;9.064;2022-10-19T16:41:52;8.52;;;4.43;;
26113;SDS011;13966;48.828;9.064;2022-10-19T16:44:18;8.07;;;4.57;;
26113;SDS011;13966;48.828;9.064;2022-10-19T16:46:44;7.55;;;5.40;;
26113;SDS011;13966;48.828;9.064;2022-10-19T16:49:10;8.13;;;4.90;;
26113;SDS011;13966;48.828;9.064;2022-10-19T16:51:37;9.57;;;5.05;;
26113;SDS011;13966;48.828;9.064;2022-10-19T16:54:04;8.55;;;5.28;;
26113;SDS011;13966;48.828;9.064;2022-10-19T16:56:30;11.20;;;6.28;;
26113;SDS011;13966;48.828;9.064;2022-10-19T16:59:00;11.18;;;5.75;;
26113;SDS011;13966;48.828;9.064;2022-10-19T17:01:27;14.57;;;6.47;;
26113;SDS011;13966;48.828;9.064;2022-10-19T17:03:54;10.45;;;5.80;;
26113;SDS011;13966;48.828;9.064;2022-10-19T17:06:20;15.50;;;6.63;;
26113;SDS011;13966;48.828;9.064;2022-10-19T17:08:46;11.15;;;6.35;;
26113;SDS011;13966;48.828;9.064;2022-10-19T17:13:39;9.15;;;6.47;;
26113;SDS011;13966;48.828;9.064;2022-10-19T17:16:05;9.45;;;6.85;;
26113;SDS011;13966;48.828;9.064;2022-10-19T17:18:31;11.77;;;5.50;;